Decoded Metar for PAIG (IGIUGIG in AK, USA) (IATA:AIG) | Meteo·Mobile Aviation Weather
aviador You're here:

PAIG Decoded Metar

IGIUGIG in AK, USA
Report Time2018-09-19 14:56:00
UTC Time2018-09-19 15:14:13
Flight Rules vfr VFR
Wind180° at 04 kt
W.Decomp.*RWY 23: 1.4 kt HW 3.7 kt LCW
W.Rank180° ranks 11
Current wind is below 180° avg. (6.8)
Visibility9999 m
Phenomena:N/A
Clouds:Overcast 060 Hf
Ceiling6,000 ft
Temp07°C (ISA -8)
Dew Point07°C (100% RH)
AAT4.9°C
QNH1026 hPa
Density Alt-1,155 ft
Elevation92 ft
Report Wrong Elevation
Raw Report
PAIG 191456Z AUTO 18004KT 10SM OVC060 07/07 A3030 RMK AO2 SLP273
T00720072 53002 $=

Extra information for PAIG:More info

Metar Taf Metar & Taf Last 4 Metars F.Rules Stats Wind Profile Meteogram Temp Stats Airport Information Weather charts Add Link Nearby VenuesMetar ALERT Operation Metar Decoded Social comments

AIRNAV info for PAIG